sensor_id;sensor_type;location;lat;lon;timestamp;P1;durP1;ratioP1;P2;durP2;ratioP2
48363;SDS011;34170;54.364;18.582;2024-02-26T00:01:32;11.35;;;5.90;;
48363;SDS011;34170;54.364;18.582;2024-02-26T00:04:01;10.38;;;5.10;;
48363;SDS011;34170;54.364;18.582;2024-02-26T00:06:30;14.40;;;6.07;;
48363;SDS011;34170;54.364;18.582;2024-02-26T00:08:58;13.00;;;6.85;;
48363;SDS011;34170;54.364;18.582;2024-02-26T00:11:26;11.70;;;6.78;;
48363;SDS011;34170;54.364;18.582;2024-02-26T00:13:53;16.05;;;7.75;;
48363;SDS011;34170;54.364;18.582;2024-02-26T00:16:21;14.68;;;7.18;;
48363;SDS011;34170;54.364;18.582;2024-02-26T00:18:49;15.13;;;6.93;;
48363;SDS011;34170;54.364;18.582;2024-02-26T00:21:17;13.70;;;6.95;;
48363;SDS011;34170;54.364;18.582;2024-02-26T00:23:45;12.98;;;6.25;;
48363;SDS011;34170;54.364;18.582;2024-02-26T00:26:12;13.93;;;6.97;;
48363;SDS011;34170;54.364;18.582;2024-02-26T00:28:40;15.48;;;7.00;;
48363;SDS011;34170;54.364;18.582;2024-02-26T00:31:07;13.80;;;7.22;;
48363;SDS011;34170;54.364;18.582;2024-02-26T00:33:35;11.32;;;6.45;;
48363;SDS011;34170;54.364;18.582;2024-02-26T00:36:03;12.65;;;5.82;;
48363;SDS011;34170;54.364;18.582;2024-02-26T00:38:31;10.27;;;5.50;;
48363;SDS011;34170;54.364;18.582;2024-02-26T00:40:59;12.63;;;5.82;;
48363;SDS011;34170;54.364;18.582;2024-02-26T00:43:26;10.55;;;5.13;;
48363;SDS011;34170;54.364;18.582;2024-02-26T00:45:54;12.38;;;5.20;;
48363;SDS011;34170;54.364;18.582;2024-02-26T00:48:21;10.75;;;5.53;;
48363;SDS011;34170;54.364;18.582;2024-02-26T00:50:49;9.05;;;4.88;;
48363;SDS011;34170;54.364;18.582;2024-02-26T00:53:17;10.43;;;5.78;;
48363;SDS011;34170;54.364;18.582;2024-02-26T00:55:44;11.35;;;5.43;;
48363;SDS011;34170;54.364;18.582;2024-02-26T00:58:12;9.77;;;5.13;;
48363;SDS011;34170;54.364;18.582;2024-02-26T01:00:40;13.20;;;5.22;;
48363;SDS011;34170;54.364;18.582;2024-02-26T01:03:07;9.75;;;5.22;;
48363;SDS011;34170;54.364;18.582;2024-02-26T01:05:35;10.52;;;5.50;;
48363;SDS011;34170;54.364;18.582;2024-02-26T01:08:03;11.85;;;5.25;;
48363;SDS011;34170;54.364;18.582;2024-02-26T01:10:31;12.70;;;5.30;;
48363;SDS011;34170;54.364;18.582;2024-02-26T01:12:59;12.35;;;5.10;;
48363;SDS011;34170;54.364;18.582;2024-02-26T01:15:27;8.20;;;5.18;;
48363;SDS011;34170;54.364;18.582;2024-02-26T01:17:55;10.07;;;4.75;;
48363;SDS011;34170;54.364;18.582;2024-02-26T01:20:22;10.10;;;5.40;;
48363;SDS011;34170;54.364;18.582;2024-02-26T01:22:50;12.00;;;5.10;;
48363;SDS011;34170;54.364;18.582;2024-02-26T01:25:18;11.32;;;5.22;;
48363;SDS011;34170;54.364;18.582;2024-02-26T01:27:45;9.77;;;4.68;;
48363;SDS011;34170;54.364;18.582;2024-02-26T01:30:13;10.18;;;4.90;;
48363;SDS011;34170;54.364;18.582;2024-02-26T01:32:43;11.65;;;5.13;;
48363;SDS011;34170;54.364;18.582;2024-02-26T01:35:11;13.00;;;5.28;;
48363;SDS011;34170;54.364;18.582;2024-02-26T01:37:39;9.27;;;4.38;;
48363;SDS011;34170;54.364;18.582;2024-02-26T01:40:07;10.27;;;5.32;;
48363;SDS011;34170;54.364;18.582;2024-02-26T01:42:39;11.45;;;5.25;;
48363;SDS011;34170;54.364;18.582;2024-02-26T01:45:07;10.73;;;5.03;;
48363;SDS011;34170;54.364;18.582;2024-02-26T01:47:42;8.85;;;4.68;;
48363;SDS011;34170;54.364;18.582;2024-02-26T01:50:13;10.20;;;4.65;;
48363;SDS011;34170;54.364;18.582;2024-02-26T01:52:41;10.93;;;5.28;;
48363;SDS011;34170;54.364;18.582;2024-02-26T01:55:08;10.43;;;5.10;;
48363;SDS011;34170;54.364;18.582;2024-02-26T01:57:36;13.25;;;6.22;;
48363;SDS011;34170;54.364;18.582;2024-02-26T02:00:04;13.20;;;5.63;;
48363;SDS011;34170;54.364;18.582;2024-02-26T02:02:34;11.27;;;5.63;;
48363;SDS011;34170;54.364;18.582;2024-02-26T02:05:02;13.30;;;5.65;;
48363;SDS011;34170;54.364;18.582;2024-02-26T02:07:31;10.93;;;5.28;;
48363;SDS011;34170;54.364;18.582;2024-02-26T02:09:59;11.07;;;5.30;;
48363;SDS011;34170;54.364;18.582;2024-02-26T02:12:27;11.93;;;5.55;;
48363;SDS011;34170;54.364;18.582;2024-02-26T02:14:55;11.65;;;5.97;;
48363;SDS011;34170;54.364;18.582;2024-02-26T02:17:22;11.20;;;5.82;;
48363;SDS011;34170;54.364;18.582;2024-02-26T02:19:50;12.25;;;6.45;;
48363;SDS011;34170;54.364;18.582;2024-02-26T02:22:17;13.95;;;6.13;;
48363;SDS011;34170;54.364;18.582;2024-02-26T02:24:45;12.95;;;5.95;;
48363;SDS011;34170;54.364;18.582;2024-02-26T02:27:13;15.27;;;7.18;;
48363;SDS011;34170;54.364;18.582;2024-02-26T02:29:41;12.80;;;6.78;;
48363;SDS011;34170;54.364;18.582;2024-02-26T02:32:09;12.10;;;6.43;;
48363;SDS011;34170;54.364;18.582;2024-02-26T02:34:37;16.67;;;7.43;;
48363;SDS011;34170;54.364;18.582;2024-02-26T02:37:05;15.60;;;7.43;;
48363;SDS011;34170;54.364;18.582;2024-02-26T02:39:32;17.08;;;7.53;;
48363;SDS011;34170;54.364;18.582;2024-02-26T02:42:00;16.00;;;8.52;;
48363;SDS011;34170;54.364;18.582;2024-02-26T02:44:28;16.92;;;8.35;;
48363;SDS011;34170;54.364;18.582;2024-02-26T02:46:55;16.65;;;8.55;;
48363;SDS011;34170;54.364;18.582;2024-02-26T02:49:23;17.05;;;8.57;;
48363;SDS011;34170;54.364;18.582;2024-02-26T02:51:51;17.30;;;9.10;;
48363;SDS011;34170;54.364;18.582;2024-02-26T02:54:20;16.77;;;8.27;;
48363;SDS011;34170;54.364;18.582;2024-02-26T02:56:48;18.98;;;9.85;;
48363;SDS011;34170;54.364;18.582;2024-02-26T02:59:16;16.02;;;9.05;;
48363;SDS011;34170;54.364;18.582;2024-02-26T03:01:43;21.27;;;9.80;;
48363;SDS011;34170;54.364;18.582;2024-02-26T03:04:12;19.05;;;9.15;;
48363;SDS011;34170;54.364;18.582;2024-02-26T03:06:39;17.33;;;8.57;;
48363;SDS011;34170;54.364;18.582;2024-02-26T03:09:07;15.82;;;8.73;;
48363;SDS011;34170;54.364;18.582;2024-02-26T03:11:35;18.80;;;8.93;;
48363;SDS011;34170;54.364;18.582;2024-02-26T03:14:02;19.02;;;9.43;;
48363;SDS011;34170;54.364;18.582;2024-02-26T03:16:31;26.08;;;10.50;;
48363;SDS011;34170;54.364;18.582;2024-02-26T03:18:59;19.55;;;9.18;;
48363;SDS011;34170;54.364;18.582;2024-02-26T03:21:27;16.70;;;8.45;;
48363;SDS011;34170;54.364;18.582;2024-02-26T03:23:55;18.73;;;9.65;;
48363;SDS011;34170;54.364;18.582;2024-02-26T03:26:22;17.88;;;8.50;;
48363;SDS011;34170;54.364;18.582;2024-02-26T03:28:50;17.38;;;8.68;;
48363;SDS011;34170;54.364;18.582;2024-02-26T03:31:18;18.40;;;8.63;;
48363;SDS011;34170;54.364;18.582;2024-02-26T03:33:46;16.95;;;9.18;;
48363;SDS011;34170;54.364;18.582;2024-02-26T03:36:13;19.27;;;8.77;;
48363;SDS011;34170;54.364;18.582;2024-02-26T03:38:42;17.98;;;9.57;;
48363;SDS011;34170;54.364;18.582;2024-02-26T03:41:09;16.20;;;8.77;;
48363;SDS011;34170;54.364;18.582;2024-02-26T03:43:37;17.90;;;10.00;;
48363;SDS011;34170;54.364;18.582;2024-02-26T03:46:08;18.08;;;9.20;;
48363;SDS011;34170;54.364;18.582;2024-02-26T03:48:41;18.10;;;9.55;;
48363;SDS011;34170;54.364;18.582;2024-02-26T03:51:09;18.20;;;9.40;;
48363;SDS011;34170;54.364;18.582;2024-02-26T03:53:37;20.58;;;10.80;;
48363;SDS011;34170;54.364;18.582;2024-02-26T03:56:05;20.02;;;9.75;;
48363;SDS011;34170;54.364;18.582;2024-02-26T03:58:33;20.95;;;10.35;;
48363;SDS011;34170;54.364;18.582;2024-02-26T04:01:01;23.17;;;12.02;;
48363;SDS011;34170;54.364;18.582;2024-02-26T04:03:29;22.25;;;11.25;;
48363;SDS011;34170;54.364;18.582;2024-02-26T04:05:57;23.40;;;12.38;;
48363;SDS011;34170;54.364;18.582;2024-02-26T04:08:24;26.27;;;12.85;;
48363;SDS011;34170;54.364;18.582;2024-02-26T04:10:52;22.95;;;13.07;;
48363;SDS011;34170;54.364;18.582;2024-02-26T04:13:20;25.20;;;13.82;;
48363;SDS011;34170;54.364;18.582;2024-02-26T04:15:47;27.33;;;14.60;;
48363;SDS011;34170;54.364;18.582;2024-02-26T04:18:15;24.67;;;13.13;;
48363;SDS011;34170;54.364;18.582;2024-02-26T04:20:42;26.13;;;13.95;;
48363;SDS011;34170;54.364;18.582;2024-02-26T04:23:10;24.42;;;14.18;;
48363;SDS011;34170;54.364;18.582;2024-02-26T04:25:38;29.15;;;14.50;;
48363;SDS011;34170;54.364;18.582;2024-02-26T04:28:05;26.20;;;14.35;;
48363;SDS011;34170;54.364;18.582;2024-02-26T04:30:33;28.25;;;15.40;;
48363;SDS011;34170;54.364;18.582;2024-02-26T04:33:01;28.60;;;15.50;;
48363;SDS011;34170;54.364;18.582;2024-02-26T04:35:28;28.52;;;15.45;;
48363;SDS011;34170;54.364;18.582;2024-02-26T04:37:56;29.52;;;15.25;;
48363;SDS011;34170;54.364;18.582;2024-02-26T04:40:24;29.52;;;15.45;;
48363;SDS011;34170;54.364;18.582;2024-02-26T04:42:51;30.50;;;16.35;;
48363;SDS011;34170;54.364;18.582;2024-02-26T04:45:19;29.90;;;16.70;;
48363;SDS011;34170;54.364;18.582;2024-02-26T04:47:47;32.35;;;16.63;;
48363;SDS011;34170;54.364;18.582;2024-02-26T04:50:14;28.55;;;16.25;;
48363;SDS011;34170;54.364;18.582;2024-02-26T04:52:42;31.60;;;16.23;;
48363;SDS011;34170;54.364;18.582;2024-02-26T04:55:10;24.90;;;14.20;;
48363;SDS011;34170;54.364;18.582;2024-02-26T04:57:38;30.48;;;15.52;;
48363;SDS011;34170;54.364;18.582;2024-02-26T05:00:06;31.27;;;16.15;;
48363;SDS011;34170;54.364;18.582;2024-02-26T05:02:35;30.95;;;16.10;;
48363;SDS011;34170;54.364;18.582;2024-02-26T05:05:05;33.28;;;16.92;;
48363;SDS011;34170;54.364;18.582;2024-02-26T05:07:33;32.55;;;16.63;;
48363;SDS011;34170;54.364;18.582;2024-02-26T05:10:06;41.78;;;20.92;;
48363;SDS011;34170;54.364;18.582;2024-02-26T05:12:34;45.33;;;23.50;;
48363;SDS011;34170;54.364;18.582;2024-02-26T05:15:03;37.42;;;18.13;;
48363;SDS011;34170;54.364;18.582;2024-02-26T05:17:31;32.85;;;17.70;;
48363;SDS011;34170;54.364;18.582;2024-02-26T05:19:59;32.72;;;17.02;;
48363;SDS011;34170;54.364;18.582;2024-02-26T05:22:27;35.47;;;18.55;;
48363;SDS011;34170;54.364;18.582;2024-02-26T05:24:55;31.55;;;17.30;;
48363;SDS011;34170;54.364;18.582;2024-02-26T05:27:24;31.92;;;18.13;;
48363;SDS011;34170;54.364;18.582;2024-02-26T05:29:51;33.38;;;17.80;;
48363;SDS011;34170;54.364;18.582;2024-02-26T05:32:21;33.63;;;17.70;;
48363;SDS011;34170;54.364;18.582;2024-02-26T05:34:49;33.08;;;18.10;;
48363;SDS011;34170;54.364;18.582;2024-02-26T05:37:16;35.05;;;18.98;;
48363;SDS011;34170;54.364;18.582;2024-02-26T05:39:44;35.05;;;18.35;;
48363;SDS011;34170;54.364;18.582;2024-02-26T05:42:12;33.13;;;17.30;;
48363;SDS011;34170;54.364;18.582;2024-02-26T05:44:39;34.45;;;19.25;;
48363;SDS011;34170;54.364;18.582;2024-02-26T05:47:07;32.13;;;17.77;;
48363;SDS011;34170;54.364;18.582;2024-02-26T05:49:35;33.35;;;18.35;;
48363;SDS011;34170;54.364;18.582;2024-02-26T05:52:03;35.45;;;18.83;;
48363;SDS011;34170;54.364;18.582;2024-02-26T05:54:31;36.45;;;18.52;;
48363;SDS011;34170;54.364;18.582;2024-02-26T05:56:59;34.53;;;19.30;;
48363;SDS011;34170;54.364;18.582;2024-02-26T05:59:26;38.88;;;19.38;;
48363;SDS011;34170;54.364;18.582;2024-02-26T06:01:54;35.03;;;19.05;;
48363;SDS011;34170;54.364;18.582;2024-02-26T06:04:22;36.25;;;18.63;;
48363;SDS011;34170;54.364;18.582;2024-02-26T06:06:49;34.55;;;19.00;;
48363;SDS011;34170;54.364;18.582;2024-02-26T06:09:17;33.13;;;17.88;;
48363;SDS011;34170;54.364;18.582;2024-02-26T06:11:44;36.33;;;17.58;;
48363;SDS011;34170;54.364;18.582;2024-02-26T06:14:12;28.42;;;17.60;;
48363;SDS011;34170;54.364;18.582;2024-02-26T06:16:41;33.65;;;18.00;;
48363;SDS011;34170;54.364;18.582;2024-02-26T06:19:09;34.58;;;18.10;;
48363;SDS011;34170;54.364;18.582;2024-02-26T06:21:40;33.67;;;16.55;;
48363;SDS011;34170;54.364;18.582;2024-02-26T06:24:07;36.22;;;17.30;;
48363;SDS011;34170;54.364;18.582;2024-02-26T06:26:35;30.75;;;16.33;;
48363;SDS011;34170;54.364;18.582;2024-02-26T06:29:02;27.05;;;14.88;;
48363;SDS011;34170;54.364;18.582;2024-02-26T06:31:31;25.60;;;14.23;;
48363;SDS011;34170;54.364;18.582;2024-02-26T06:33:58;26.25;;;14.43;;
48363;SDS011;34170;54.364;18.582;2024-02-26T06:36:27;25.55;;;14.20;;
48363;SDS011;34170;54.364;18.582;2024-02-26T06:38:54;22.58;;;13.48;;
48363;SDS011;34170;54.364;18.582;2024-02-26T06:41:22;25.00;;;13.38;;
48363;SDS011;34170;54.364;18.582;2024-02-26T06:43:54;21.98;;;13.10;;
48363;SDS011;34170;54.364;18.582;2024-02-26T06:46:22;24.65;;;13.93;;
48363;SDS011;34170;54.364;18.582;2024-02-26T06:48:50;20.40;;;11.80;;
48363;SDS011;34170;54.364;18.582;2024-02-26T06:51:22;24.92;;;14.15;;
48363;SDS011;34170;54.364;18.582;2024-02-26T06:53:50;27.13;;;14.05;;
48363;SDS011;34170;54.364;18.582;2024-02-26T06:56:17;21.25;;;12.85;;
48363;SDS011;34170;54.364;18.582;2024-02-26T06:58:45;23.60;;;12.60;;
48363;SDS011;34170;54.364;18.582;2024-02-26T07:01:13;21.70;;;12.65;;
48363;SDS011;34170;54.364;18.582;2024-02-26T07:03:40;22.20;;;12.07;;
48363;SDS011;34170;54.364;18.582;2024-02-26T07:06:08;20.27;;;12.40;;
48363;SDS011;34170;54.364;18.582;2024-02-26T07:08:36;22.30;;;12.38;;
48363;SDS011;34170;54.364;18.582;2024-02-26T07:11:06;21.75;;;12.05;;
48363;SDS011;34170;54.364;18.582;2024-02-26T07:13:35;20.30;;;11.25;;
48363;SDS011;34170;54.364;18.582;2024-02-26T07:16:03;16.27;;;11.00;;
48363;SDS011;34170;54.364;18.582;2024-02-26T07:18:31;20.27;;;11.68;;
48363;SDS011;34170;54.364;18.582;2024-02-26T07:21:01;18.80;;;11.27;;
48363;SDS011;34170;54.364;18.582;2024-02-26T07:23:29;17.40;;;11.68;;
48363;SDS011;34170;54.364;18.582;2024-02-26T07:25:57;20.02;;;11.70;;
48363;SDS011;34170;54.364;18.582;2024-02-26T07:28:25;18.25;;;10.88;;
48363;SDS011;34170;54.364;18.582;2024-02-26T07:30:53;18.08;;;11.50;;
48363;SDS011;34170;54.364;18.582;2024-02-26T07:33:21;17.35;;;11.40;;
48363;SDS011;34170;54.364;18.582;2024-02-26T07:35:49;19.65;;;12.02;;
48363;SDS011;34170;54.364;18.582;2024-02-26T07:38:16;17.95;;;12.18;;
48363;SDS011;34170;54.364;18.582;2024-02-26T07:40:58;16.10;;;11.00;;
48363;SDS011;34170;54.364;18.582;2024-02-26T07:45:57;18.13;;;11.35;;
48363;SDS011;34170;54.364;18.582;2024-02-26T07:48:25;18.70;;;12.23;;
48363;SDS011;34170;54.364;18.582;2024-02-26T07:50:53;19.25;;;12.10;;
48363;SDS011;34170;54.364;18.582;2024-02-26T07:53:21;17.27;;;11.68;;
48363;SDS011;34170;54.364;18.582;2024-02-26T07:55:48;17.10;;;11.88;;
48363;SDS011;34170;54.364;18.582;2024-02-26T07:58:16;18.70;;;12.20;;
48363;SDS011;34170;54.364;18.582;2024-02-26T08:00:43;19.30;;;12.50;;
48363;SDS011;34170;54.364;18.582;2024-02-26T08:03:13;19.77;;;12.23;;
48363;SDS011;34170;54.364;18.582;2024-02-26T08:05:43;18.77;;;12.15;;
48363;SDS011;34170;54.364;18.582;2024-02-26T08:08:11;18.92;;;12.50;;
48363;SDS011;34170;54.364;18.582;2024-02-26T08:10:39;19.42;;;11.98;;
48363;SDS011;34170;54.364;18.582;2024-02-26T08:13:06;17.48;;;10.85;;
48363;SDS011;34170;54.364;18.582;2024-02-26T08:15:37;17.95;;;12.20;;
48363;SDS011;34170;54.364;18.582;2024-02-26T08:18:04;20.10;;;12.32;;
48363;SDS011;34170;54.364;18.582;2024-02-26T08:20:33;19.67;;;13.05;;
48363;SDS011;34170;54.364;18.582;2024-02-26T08:23:00;19.58;;;12.05;;
48363;SDS011;34170;54.364;18.582;2024-02-26T08:25:28;22.17;;;12.90;;
48363;SDS011;34170;54.364;18.582;2024-02-26T08:27:55;22.33;;;14.00;;
48363;SDS011;34170;54.364;18.582;2024-02-26T08:30:23;20.77;;;13.02;;
48363;SDS011;34170;54.364;18.582;2024-02-26T08:32:51;20.75;;;13.65;;
48363;SDS011;34170;54.364;18.582;2024-02-26T08:35:20;19.25;;;13.85;;
48363;SDS011;34170;54.364;18.582;2024-02-26T08:37:47;19.95;;;12.25;;
48363;SDS011;34170;54.364;18.582;2024-02-26T08:40:15;21.08;;;13.13;;
48363;SDS011;34170;54.364;18.582;2024-02-26T08:42:43;18.52;;;12.80;;
48363;SDS011;34170;54.364;18.582;2024-02-26T08:45:11;19.17;;;12.80;;
48363;SDS011;34170;54.364;18.582;2024-02-26T08:47:39;15.15;;;10.95;;
48363;SDS011;34170;54.364;18.582;2024-02-26T08:50:07;17.92;;;13.07;;
48363;SDS011;34170;54.364;18.582;2024-02-26T08:52:36;21.23;;;11.50;;
48363;SDS011;34170;54.364;18.582;2024-02-26T08:55:04;17.70;;;10.82;;
48363;SDS011;34170;54.364;18.582;2024-02-26T08:57:33;18.60;;;12.02;;
48363;SDS011;34170;54.364;18.582;2024-02-26T09:00:01;17.45;;;10.80;;
48363;SDS011;34170;54.364;18.582;2024-02-26T09:02:29;16.95;;;11.50;;
48363;SDS011;34170;54.364;18.582;2024-02-26T09:04:57;17.98;;;11.32;;
48363;SDS011;34170;54.364;18.582;2024-02-26T09:07:24;20.80;;;11.90;;
48363;SDS011;34170;54.364;18.582;2024-02-26T09:09:52;22.92;;;13.82;;
48363;SDS011;34170;54.364;18.582;2024-02-26T09:12:20;22.58;;;11.95;;
48363;SDS011;34170;54.364;18.582;2024-02-26T09:14:49;21.33;;;12.30;;
48363;SDS011;34170;54.364;18.582;2024-02-26T09:17:16;21.23;;;12.05;;
48363;SDS011;34170;54.364;18.582;2024-02-26T09:19:44;18.77;;;13.07;;
48363;SDS011;34170;54.364;18.582;2024-02-26T09:22:12;20.92;;;11.90;;
48363;SDS011;34170;54.364;18.582;2024-02-26T09:24:45;28.95;;;13.40;;
48363;SDS011;34170;54.364;18.582;2024-02-26T09:27:12;28.05;;;15.00;;
48363;SDS011;34170;54.364;18.582;2024-02-26T09:29:40;28.90;;;14.43;;
48363;SDS011;34170;54.364;18.582;2024-02-26T09:32:07;28.65;;;14.75;;
48363;SDS011;34170;54.364;18.582;2024-02-26T09:34:35;39.92;;;15.30;;
48363;SDS011;34170;54.364;18.582;2024-02-26T09:37:03;25.05;;;13.77;;
48363;SDS011;34170;54.364;18.582;2024-02-26T09:39:44;26.40;;;14.32;;
48363;SDS011;34170;54.364;18.582;2024-02-26T09:42:13;19.90;;;13.25;;
48363;SDS011;34170;54.364;18.582;2024-02-26T09:44:41;28.33;;;13.52;;
48363;SDS011;34170;54.364;18.582;2024-02-26T09:47:13;26.35;;;13.55;;
48363;SDS011;34170;54.364;18.582;2024-02-26T09:49:44;20.40;;;12.65;;
48363;SDS011;34170;54.364;18.582;2024-02-26T09:52:14;21.65;;;13.80;;
48363;SDS011;34170;54.364;18.582;2024-02-26T09:54:46;23.55;;;13.73;;
48363;SDS011;34170;54.364;18.582;2024-02-26T09:57:15;21.63;;;13.70;;
48363;SDS011;34170;54.364;18.582;2024-02-26T09:59:44;21.50;;;13.90;;
48363;SDS011;34170;54.364;18.582;2024-02-26T10:02:16;27.20;;;13.75;;
48363;SDS011;34170;54.364;18.582;2024-02-26T10:04:48;24.20;;;14.15;;
48363;SDS011;34170;54.364;18.582;2024-02-26T10:07:18;23.52;;;14.65;;
48363;SDS011;34170;54.364;18.582;2024-02-26T10:09:48;22.50;;;13.45;;
48363;SDS011;34170;54.364;18.582;2024-02-26T10:12:15;20.83;;;12.32;;
48363;SDS011;34170;54.364;18.582;2024-02-26T10:14:45;20.95;;;12.85;;
48363;SDS011;34170;54.364;18.582;2024-02-26T10:17:12;21.67;;;13.27;;
48363;SDS011;34170;54.364;18.582;2024-02-26T10:19:40;24.85;;;14.45;;
48363;SDS011;34170;54.364;18.582;2024-02-26T10:22:08;21.52;;;13.18;;
48363;SDS011;34170;54.364;18.582;2024-02-26T10:24:36;23.77;;;13.82;;
48363;SDS011;34170;54.364;18.582;2024-02-26T10:27:04;21.90;;;13.57;;
48363;SDS011;34170;54.364;18.582;2024-02-26T10:29:32;22.73;;;14.27;;
48363;SDS011;34170;54.364;18.582;2024-02-26T10:32:00;21.67;;;13.52;;
48363;SDS011;34170;54.364;18.582;2024-02-26T10:34:28;23.67;;;14.25;;
48363;SDS011;34170;54.364;18.582;2024-02-26T10:36:56;24.65;;;13.75;;
48363;SDS011;34170;54.364;18.582;2024-02-26T10:39:24;19.58;;;12.77;;
48363;SDS011;34170;54.364;18.582;2024-02-26T10:41:51;21.40;;;12.88;;
48363;SDS011;34170;54.364;18.582;2024-02-26T10:44:20;21.17;;;12.90;;
48363;SDS011;34170;54.364;18.582;2024-02-26T10:46:47;23.40;;;14.13;;
48363;SDS011;34170;54.364;18.582;2024-02-26T10:49:18;22.33;;;13.25;;
48363;SDS011;34170;54.364;18.582;2024-02-26T10:51:55;21.05;;;13.55;;
48363;SDS011;34170;54.364;18.582;2024-02-26T10:54:26;24.23;;;13.63;;
48363;SDS011;34170;54.364;18.582;2024-02-26T10:56:56;25.05;;;13.70;;
48363;SDS011;34170;54.364;18.582;2024-02-26T10:59:27;23.90;;;12.98;;
48363;SDS011;34170;54.364;18.582;2024-02-26T11:01:56;31.73;;;14.45;;
48363;SDS011;34170;54.364;18.582;2024-02-26T11:04:25;21.83;;;12.93;;
48363;SDS011;34170;54.364;18.582;2024-02-26T11:06:55;19.90;;;12.43;;
48363;SDS011;34170;54.364;18.582;2024-02-26T11:09:24;25.05;;;13.68;;
48363;SDS011;34170;54.364;18.582;2024-02-26T11:11:54;25.00;;;13.13;;
48363;SDS011;34170;54.364;18.582;2024-02-26T11:14:23;23.83;;;14.00;;
48363;SDS011;34170;54.364;18.582;2024-02-26T11:16:54;20.25;;;13.43;;
48363;SDS011;34170;54.364;18.582;2024-02-26T11:19:23;23.85;;;15.05;;
48363;SDS011;34170;54.364;18.582;2024-02-26T11:21:51;26.38;;;15.20;;
48363;SDS011;34170;54.364;18.582;2024-02-26T11:24:19;24.80;;;15.23;;
48363;SDS011;34170;54.364;18.582;2024-02-26T11:26:51;23.58;;;14.13;;
48363;SDS011;34170;54.364;18.582;2024-02-26T11:29:29;24.17;;;14.63;;
48363;SDS011;34170;54.364;18.582;2024-02-26T11:32:03;25.55;;;14.07;;
48363;SDS011;34170;54.364;18.582;2024-02-26T11:34:30;24.48;;;14.40;;
48363;SDS011;34170;54.364;18.582;2024-02-26T11:37:08;27.48;;;15.02;;
48363;SDS011;34170;54.364;18.582;2024-02-26T11:39:39;26.67;;;14.55;;
48363;SDS011;34170;54.364;18.582;2024-02-26T11:42:08;30.17;;;16.25;;
48363;SDS011;34170;54.364;18.582;2024-02-26T11:44:36;27.00;;;16.42;;
48363;SDS011;34170;54.364;18.582;2024-02-26T11:49:39;29.60;;;16.30;;
48363;SDS011;34170;54.364;18.582;2024-02-26T11:52:08;28.33;;;16.10;;
48363;SDS011;34170;54.364;18.582;2024-02-26T11:54:43;30.65;;;16.25;;
48363;SDS011;34170;54.364;18.582;2024-02-26T11:59:50;26.27;;;15.40;;
48363;SDS011;34170;54.364;18.582;2024-02-26T12:05:14;26.75;;;16.05;;
48363;SDS011;34170;54.364;18.582;2024-02-26T12:07:49;31.25;;;16.48;;
48363;SDS011;34170;54.364;18.582;2024-02-26T12:15:38;30.43;;;16.07;;
48363;SDS011;34170;54.364;18.582;2024-02-26T12:18:10;31.30;;;18.33;;
48363;SDS011;34170;54.364;18.582;2024-02-26T12:20:43;31.67;;;18.63;;
48363;SDS011;34170;54.364;18.582;2024-02-26T12:23:16;29.05;;;18.00;;
48363;SDS011;34170;54.364;18.582;2024-02-26T12:25:44;32.63;;;17.75;;
48363;SDS011;34170;54.364;18.582;2024-02-26T12:28:15;33.65;;;19.05;;
48363;SDS011;34170;54.364;18.582;2024-02-26T12:30:42;32.58;;;18.52;;
48363;SDS011;34170;54.364;18.582;2024-02-26T12:33:10;35.20;;;19.15;;
48363;SDS011;34170;54.364;18.582;2024-02-26T12:35:38;40.20;;;20.63;;
48363;SDS011;34170;54.364;18.582;2024-02-26T12:38:06;40.60;;;19.63;;
48363;SDS011;34170;54.364;18.582;2024-02-26T12:40:33;34.75;;;18.73;;
48363;SDS011;34170;54.364;18.582;2024-02-26T12:43:01;35.72;;;20.77;;
48363;SDS011;34170;54.364;18.582;2024-02-26T12:45:30;34.60;;;19.40;;
48363;SDS011;34170;54.364;18.582;2024-02-26T12:47:57;37.72;;;20.58;;
48363;SDS011;34170;54.364;18.582;2024-02-26T12:50:26;32.88;;;20.05;;
48363;SDS011;34170;54.364;18.582;2024-02-26T12:52:54;31.08;;;19.00;;
48363;SDS011;34170;54.364;18.582;2024-02-26T12:55:22;35.45;;;18.83;;
48363;SDS011;34170;54.364;18.582;2024-02-26T12:57:50;36.50;;;19.55;;
48363;SDS011;34170;54.364;18.582;2024-02-26T13:00:20;32.42;;;19.48;;
48363;SDS011;34170;54.364;18.582;2024-02-26T13:02:51;34.75;;;20.13;;
48363;SDS011;34170;54.364;18.582;2024-02-26T13:05:22;34.35;;;20.17;;
48363;SDS011;34170;54.364;18.582;2024-02-26T13:07:50;33.65;;;20.13;;
48363;SDS011;34170;54.364;18.582;2024-02-26T13:10:20;38.83;;;21.45;;
48363;SDS011;34170;54.364;18.582;2024-02-26T13:12:48;37.72;;;20.98;;
48363;SDS011;34170;54.364;18.582;2024-02-26T13:15:21;34.50;;;20.70;;
48363;SDS011;34170;54.364;18.582;2024-02-26T13:17:49;34.85;;;19.63;;
48363;SDS011;34170;54.364;18.582;2024-02-26T13:20:27;37.97;;;19.60;;
48363;SDS011;34170;54.364;18.582;2024-02-26T13:23:03;36.70;;;20.40;;
48363;SDS011;34170;54.364;18.582;2024-02-26T13:25:33;33.67;;;19.75;;
48363;SDS011;34170;54.364;18.582;2024-02-26T13:28:06;29.80;;;17.33;;
48363;SDS011;34170;54.364;18.582;2024-02-26T13:30:35;29.05;;;17.38;;
48363;SDS011;34170;54.364;18.582;2024-02-26T13:33:10;28.38;;;16.67;;
48363;SDS011;34170;54.364;18.582;2024-02-26T13:35:39;25.65;;;16.30;;
48363;SDS011;34170;54.364;18.582;2024-02-26T13:38:07;24.15;;;15.73;;
48363;SDS011;34170;54.364;18.582;2024-02-26T13:40:35;29.48;;;16.13;;
48363;SDS011;34170;54.364;18.582;2024-02-26T13:43:02;27.20;;;16.38;;
48363;SDS011;34170;54.364;18.582;2024-02-26T13:45:33;26.98;;;15.50;;
48363;SDS011;34170;54.364;18.582;2024-02-26T13:48:05;28.40;;;16.35;;
48363;SDS011;34170;54.364;18.582;2024-02-26T13:50:35;27.60;;;15.73;;
48363;SDS011;34170;54.364;18.582;2024-02-26T13:53:02;24.88;;;15.40;;
48363;SDS011;34170;54.364;18.582;2024-02-26T13:55:31;25.50;;;15.25;;
48363;SDS011;34170;54.364;18.582;2024-02-26T13:57:59;25.85;;;15.02;;
48363;SDS011;34170;54.364;18.582;2024-02-26T14:00:30;23.80;;;15.33;;
48363;SDS011;34170;54.364;18.582;2024-02-26T14:03:01;24.48;;;15.88;;
48363;SDS011;34170;54.364;18.582;2024-02-26T14:05:29;24.50;;;14.50;;
48363;SDS011;34170;54.364;18.582;2024-02-26T14:07:57;27.55;;;15.13;;
48363;SDS011;34170;54.364;18.582;2024-02-26T14:10:25;28.52;;;15.68;;
48363;SDS011;34170;54.364;18.582;2024-02-26T14:12:53;28.42;;;15.38;;
48363;SDS011;34170;54.364;18.582;2024-02-26T14:15:21;26.80;;;15.98;;
48363;SDS011;34170;54.364;18.582;2024-02-26T14:17:48;29.15;;;17.42;;
48363;SDS011;34170;54.364;18.582;2024-02-26T14:20:22;26.40;;;17.27;;
48363;SDS011;34170;54.364;18.582;2024-02-26T14:22:51;32.95;;;17.40;;
48363;SDS011;34170;54.364;18.582;2024-02-26T14:25:22;30.02;;;16.40;;
48363;SDS011;34170;54.364;18.582;2024-02-26T14:27:52;29.52;;;17.15;;
48363;SDS011;34170;54.364;18.582;2024-02-26T14:30:20;29.88;;;17.30;;
48363;SDS011;34170;54.364;18.582;2024-02-26T14:32:47;28.10;;;15.98;;
48363;SDS011;34170;54.364;18.582;2024-02-26T14:35:15;29.67;;;17.15;;
48363;SDS011;34170;54.364;18.582;2024-02-26T14:37:44;27.30;;;16.65;;